Terminal Aerodrome Forecast
Issued by NWS

Home | Current Version | Previous Version | Text Only | Print | Product List | Glossary Off
Versions: 1 2 3 4 5 6 7 8 9 10 11 12 13 14 15 16 17 18 19 20 21 22

000
FTUS43 KGRB 211100
TAFCWA
TAF
KCWA 211134Z 2112/2212 32010KT P6SM SCT006 OVC012
      TEMPO 2112/2114 -SHRA BKN006
     FM211400 35012KT P6SM BKN015 BKN035
     FM211700 34012G20KT P6SM BKN030
     FM212000 34010KT P6SM SCT035
     FM220000 34005KT P6SM SKC=

USA.gov is the U.S. government's official web portal to all federal, state and local government web resources and services.